createdAt,value
2023-08-27T00:08:53.117Z,11.96
2023-08-27T00:18:57.276Z,12.12
2023-08-27T00:29:00.369Z,11.82
2023-08-27T00:39:05.458Z,11.77
2023-08-27T00:49:08.325Z,11.55
2023-08-27T00:59:13.352Z,11.08
2023-08-27T01:09:22.235Z,11.43
2023-08-27T01:19:27.126Z,11.25
2023-08-27T01:29:36.042Z,11.22
2023-08-27T01:39:38.883Z,11.23
2023-08-27T01:49:43.097Z,11.40
2023-08-27T01:59:45.924Z,11.27
2023-08-27T02:09:50.683Z,11.44
2023-08-27T02:19:53.508Z,11.57
2023-08-27T02:29:57.714Z,11.23
2023-08-27T02:40:00.569Z,11.31
2023-08-27T02:50:05.316Z,11.32
2023-08-27T03:00:09.386Z,11.36
2023-08-27T03:10:15.038Z,11.38
2023-08-27T03:20:18.460Z,11.32
2023-08-27T03:30:22.663Z,11.41
2023-08-27T03:40:25.540Z,11.39
2023-08-27T03:50:29.777Z,11.43
2023-08-27T04:00:33.863Z,11.23
2023-08-27T04:10:38.085Z,11.35
2023-08-27T04:20:40.963Z,11.25
2023-08-27T04:30:45.138Z,11.28
2023-08-27T04:40:51.655Z,11.34
2023-08-27T04:50:55.861Z,11.41
2023-08-27T05:00:59.326Z,11.39
2023-08-27T05:11:03.639Z,11.42
2023-08-27T05:21:06.502Z,11.42
2023-08-27T05:31:10.736Z,11.64
2023-08-27T05:41:13.537Z,11.72
2023-08-27T05:51:17.817Z,12.05
2023-08-27T06:01:20.663Z,12.20
2023-08-27T06:11:24.948Z,12.52
2023-08-27T06:21:28.764Z,12.64
2023-08-27T06:31:33.198Z,12.59
2023-08-27T06:41:36.006Z,12.70
2023-08-27T06:51:40.161Z,12.76
2023-08-27T07:01:42.945Z,12.94
2023-08-27T07:11:47.111Z,13.12
2023-08-27T07:21:49.992Z,13.14
2023-08-27T07:31:54.154Z,13.65
2023-08-27T07:41:56.984Z,13.16
2023-08-27T07:52:01.982Z,12.97
2023-08-27T08:02:05.076Z,12.76
2023-08-27T08:12:10.076Z,13.08
2023-08-27T08:22:12.898Z,13.03
2023-08-27T08:32:17.066Z,13.51
2023-08-27T08:42:24.259Z,13.60
2023-08-27T08:52:29.497Z,14.00
2023-08-27T09:02:32.349Z,14.83
2023-08-27T09:12:40.888Z,14.72
2023-08-27T09:22:44.255Z,15.75
2023-08-27T09:32:48.544Z,15.63
2023-08-27T09:43:05.310Z,16.11
2023-08-27T09:53:13.494Z,16.75
2023-08-27T10:03:23.665Z,17.14
2023-08-27T10:13:28.808Z,16.93
2023-08-27T10:23:32.923Z,17.89
2023-08-27T10:33:37.342Z,19.04
2023-08-27T10:43:40.211Z,18.16
2023-08-27T10:53:56.901Z,17.64
2023-08-27T11:04:01.337Z,18.22
2023-08-27T11:14:19.985Z,18.29
2023-08-27T11:24:25.959Z,18.31
2023-08-27T11:34:36.212Z,17.40
2023-08-27T11:44:50.470Z,16.59
2023-08-27T11:54:57.345Z,15.67
2023-08-27T12:05:00.310Z,14.96
2023-08-27T12:15:04.875Z,14.74
2023-08-27T12:25:08.215Z,15.46
2023-08-27T12:35:14.420Z,16.12
2023-08-27T12:45:17.241Z,16.86
2023-08-27T12:55:21.964Z,16.73
2023-08-27T13:05:24.860Z,17.29
2023-08-27T13:15:29.140Z,16.17
2023-08-27T13:25:32.074Z,16.54
2023-08-27T13:35:36.235Z,15.78
2023-08-27T13:45:39.168Z,15.63
2023-08-27T13:55:43.522Z,15.73
2023-08-27T14:05:46.358Z,16.27
2023-08-27T14:15:51.052Z,16.44
2023-08-27T14:25:54.116Z,16.61
2023-08-27T14:35:58.334Z,17.00
2023-08-27T14:46:01.143Z,17.26
2023-08-27T14:56:05.412Z,16.49
2023-08-27T15:06:08.270Z,16.59
2023-08-27T15:16:12.505Z,16.91
2023-08-27T15:26:15.348Z,16.74
2023-08-27T15:36:19.778Z,16.99
2023-08-27T15:46:22.654Z,17.03
2023-08-27T15:56:27.277Z,17.31
2023-08-27T16:06:30.196Z,16.90
2023-08-27T16:16:34.390Z,16.25
2023-08-27T16:26:37.221Z,16.58
2023-08-27T16:36:41.373Z,16.05
2023-08-27T16:46:44.324Z,15.63
2023-08-27T16:56:48.550Z,15.79
2023-08-27T17:06:51.436Z,15.51
2023-08-27T17:16:55.582Z,15.47
2023-08-27T17:26:58.365Z,15.26
2023-08-27T17:37:02.654Z,14.93
2023-08-27T17:47:06.143Z,17.68
2023-08-27T17:57:10.285Z,18.02
2023-08-27T18:07:13.677Z,16.71
2023-08-27T18:17:17.832Z,15.19
2023-08-27T18:27:20.615Z,14.64
2023-08-27T18:37:24.790Z,14.29
2023-08-27T18:47:27.656Z,14.15
2023-08-27T18:57:33.172Z,14.17
2023-08-27T19:07:39.532Z,13.87
2023-08-27T19:17:43.691Z,13.58
2023-08-27T19:27:46.613Z,13.35
2023-08-27T19:37:50.783Z,13.17
2023-08-27T19:47:53.878Z,13.02
2023-08-27T19:57:58.068Z,12.90
2023-08-27T20:08:00.936Z,12.63
2023-08-27T20:18:07.290Z,12.48
2023-08-27T20:28:10.078Z,12.21
2023-08-27T20:38:14.485Z,12.09
2023-08-27T20:48:17.748Z,11.89
2023-08-27T20:58:21.917Z,11.87
2023-08-27T21:08:24.795Z,11.55
2023-08-27T21:18:29.000Z,11.56
2023-08-27T21:28:31.785Z,11.39
2023-08-27T21:38:35.931Z,11.37
2023-08-27T21:48:38.743Z,11.04
2023-08-27T21:58:42.953Z,10.50
2023-08-27T22:08:45.797Z,10.58
2023-08-27T22:18:49.991Z,10.39
2023-08-27T22:28:52.787Z,10.28
2023-08-27T22:38:56.944Z,10.26
2023-08-27T22:48:59.900Z,9.46
2023-08-27T22:59:04.061Z,9.57
2023-08-27T23:09:06.972Z,9.43
2023-08-27T23:19:11.229Z,9.10
2023-08-27T23:29:14.437Z,9.46
2023-08-27T23:39:18.605Z,9.44
2023-08-27T23:49:21.395Z,9.17
2023-08-27T23:59:25.559Z,8.87
